createdAt,value
2022-09-28T00:01:40.439Z,1.50
2022-09-28T00:04:28.947Z,1.20
2022-09-28T00:07:18.707Z,1.20
2022-09-28T00:10:08.153Z,1.30
2022-09-28T00:12:56.664Z,1.20
2022-09-28T00:15:45.074Z,1.50
2022-09-28T00:18:33.743Z,1.57
2022-09-28T00:21:23.591Z,1.10
2022-09-28T00:24:15.900Z,1.33
2022-09-28T00:27:04.596Z,1.30
2022-09-28T00:29:53.046Z,1.17
2022-09-28T00:32:41.487Z,1.20
2022-09-28T00:35:29.896Z,1.30
2022-09-28T00:38:18.387Z,1.40
2022-09-28T00:41:08.256Z,1.47
2022-09-28T00:44:31.717Z,1.70
2022-09-28T00:47:32.147Z,1.30
2022-09-28T00:50:26.369Z,1.50
2022-09-28T00:53:19.023Z,1.70
2022-09-28T00:56:11.355Z,1.70
2022-09-28T00:59:01.032Z,1.33
2022-09-28T01:01:49.593Z,1.57
2022-09-28T01:04:38.421Z,1.50
2022-09-28T01:07:26.867Z,1.27
2022-09-28T01:10:15.617Z,1.23
2022-09-28T01:13:05.553Z,1.60
2022-09-28T01:15:57.915Z,1.53
2022-09-28T01:18:53.729Z,1.57
2022-09-28T01:21:50.627Z,1.40
2022-09-28T01:24:41.738Z,1.47
2022-09-28T01:27:34.148Z,1.30
2022-09-28T01:30:22.930Z,1.20
2022-09-28T01:33:14.700Z,1.27
2022-09-28T01:36:07.344Z,1.57
2022-09-28T01:38:57.372Z,1.40
2022-09-28T01:41:47.377Z,1.30
2022-09-28T01:44:39.873Z,1.43
2022-09-28T01:47:33.003Z,1.80
2022-09-28T01:50:24.059Z,1.93
2022-09-28T01:53:16.864Z,1.73
2022-09-28T01:56:08.403Z,1.60
2022-09-28T01:59:00.847Z,2.07
2022-09-28T02:01:54.194Z,2.10
2022-09-28T02:04:45.151Z,2.40
2022-09-28T02:07:36.417Z,1.90
2022-09-28T02:10:27.156Z,1.97
2022-09-28T02:13:18.178Z,2.10
2022-09-28T02:16:11.680Z,2.03
2022-09-28T02:19:01.688Z,2.07
2022-09-28T02:21:55.683Z,2.80
2022-09-28T02:24:47.475Z,2.90
2022-09-28T02:27:38.998Z,1.90
2022-09-28T02:30:27.723Z,2.10
2022-09-28T02:33:19.443Z,1.70
2022-09-28T02:36:09.491Z,1.70
2022-09-28T02:38:58.634Z,1.93
2022-09-28T02:41:56.020Z,1.57
2022-09-28T02:45:04.521Z,1.67
2022-09-28T02:48:04.543Z,1.47
2022-09-28T02:51:01.950Z,1.47
2022-09-28T02:54:02.384Z,1.77
2022-09-28T02:57:03.020Z,1.37
2022-09-28T02:59:54.705Z,1.60
2022-09-28T03:02:53.286Z,1.23
2022-09-28T03:05:46.520Z,1.50
2022-09-28T03:08:38.758Z,1.20
2022-09-28T03:11:32.168Z,1.27
2022-09-28T03:14:21.720Z,1.67
2022-09-28T03:17:10.170Z,1.43
2022-09-28T03:19:58.594Z,1.30
2022-09-28T03:23:00.502Z,1.57
2022-09-28T03:25:56.061Z,1.40
2022-09-28T03:28:45.824Z,1.60
2022-09-28T03:31:35.093Z,1.60
2022-09-28T03:34:23.597Z,1.50
2022-09-28T03:37:12.036Z,2.00
2022-09-28T03:40:00.451Z,2.03
2022-09-28T03:42:48.913Z,1.83
2022-09-28T03:45:38.777Z,1.80
2022-09-28T03:48:32.127Z,1.80
2022-09-28T03:51:21.220Z,1.80
2022-09-28T03:54:09.674Z,1.90
2022-09-28T03:56:58.170Z,1.37
2022-09-28T03:59:46.603Z,2.03
2022-09-28T04:02:36.478Z,1.63
2022-09-28T04:05:25.073Z,2.07
2022-09-28T04:08:13.505Z,1.90
2022-09-28T04:11:02.563Z,2.00
2022-09-28T04:13:51.218Z,1.90
2022-09-28T04:16:39.702Z,2.10
2022-09-28T04:19:29.513Z,2.10
2022-09-28T04:22:17.923Z,2.23
2022-09-28T04:25:06.596Z,2.53
2022-09-28T04:28:12.652Z,2.17
2022-09-28T04:31:01.080Z,1.97
2022-09-28T04:33:49.561Z,2.20
2022-09-28T04:36:39.334Z,2.00
2022-09-28T04:39:27.791Z,2.23
2022-09-28T04:42:16.245Z,2.57
2022-09-28T04:45:05.734Z,2.00
2022-09-28T04:47:54.582Z,2.33
2022-09-28T04:50:42.979Z,2.60
2022-09-28T04:53:32.824Z,2.40
2022-09-28T04:56:21.384Z,2.50
2022-09-28T04:59:09.907Z,3.30
2022-09-28T05:01:58.533Z,3.07
2022-09-28T05:04:47.002Z,2.80
2022-09-28T05:07:35.500Z,3.20
2022-09-28T05:10:25.348Z,2.80
2022-09-28T05:13:15.229Z,3.07
2022-09-28T05:16:05.604Z,3.33
2022-09-28T05:18:56.225Z,3.73
2022-09-28T05:21:45.353Z,3.97
2022-09-28T05:24:33.979Z,3.83
2022-09-28T05:27:23.852Z,4.30
2022-09-28T05:30:13.244Z,3.87
2022-09-28T05:33:01.805Z,4.00
2022-09-28T05:35:54.440Z,5.33
2022-09-28T05:38:44.440Z,4.53
2022-09-28T05:41:33.050Z,5.00
2022-09-28T05:44:22.839Z,4.47
2022-09-28T05:47:11.533Z,5.00
2022-09-28T05:49:59.946Z,4.53
2022-09-28T05:52:50.133Z,4.90
2022-09-28T05:55:39.818Z,4.47
2022-09-28T05:58:28.880Z,4.83
2022-09-28T06:01:18.698Z,4.33
2022-09-28T06:04:07.896Z,4.17
2022-09-28T06:06:56.341Z,4.00
2022-09-28T06:09:44.980Z,4.17
2022-09-28T06:12:34.814Z,4.30
2022-09-28T06:15:23.879Z,4.30
2022-09-28T06:18:15.154Z,4.10
2022-09-28T06:21:03.899Z,3.87
2022-09-28T06:23:52.324Z,3.37
2022-09-28T06:26:40.900Z,4.07
2022-09-28T06:29:29.909Z,3.60
2022-09-28T06:32:18.359Z,3.60
2022-09-28T06:35:09.893Z,4.00
2022-09-28T06:37:59.068Z,4.47
2022-09-28T06:40:47.582Z,3.87
2022-09-28T06:43:36.663Z,4.50
2022-09-28T06:46:25.469Z,3.70
2022-09-28T06:49:18.627Z,4.10
2022-09-28T06:52:09.162Z,3.50
2022-09-28T06:54:57.648Z,3.77
2022-09-28T06:57:46.057Z,3.70
2022-09-28T07:00:36.442Z,4.03
2022-09-28T07:03:24.874Z,3.67
2022-09-28T07:06:13.767Z,3.50
2022-09-28T07:09:27.858Z,3.83
2022-09-28T07:12:14.825Z,3.80
2022-09-28T07:15:03.801Z,3.83
2022-09-28T07:18:02.748Z,4.03
2022-09-28T07:20:54.670Z,4.23
2022-09-28T07:23:52.105Z,4.60
2022-09-28T07:26:45.381Z,3.80
2022-09-28T07:29:33.845Z,4.10
2022-09-28T07:32:22.503Z,3.90
2022-09-28T07:35:10.999Z,3.70
2022-09-28T07:38:01.417Z,3.57
2022-09-28T07:41:07.566Z,3.07
2022-09-28T07:43:58.972Z,3.60
2022-09-28T07:46:47.404Z,4.30
2022-09-28T07:49:36.066Z,3.77
2022-09-28T07:52:26.077Z,3.60
2022-09-28T07:55:14.608Z,3.23
2022-09-28T07:58:03.052Z,3.77
2022-09-28T08:00:52.903Z,3.50
2022-09-28T08:03:45.207Z,3.90
2022-09-28T08:06:33.660Z,3.13
2022-09-28T08:09:22.138Z,3.03
2022-09-28T08:12:11.198Z,2.60
2022-09-28T08:15:00.164Z,3.37
2022-09-28T08:17:50.505Z,3.00
2022-09-28T08:20:59.129Z,3.50
2022-09-28T08:23:47.677Z,3.90
2022-09-28T08:26:36.205Z,3.80
2022-09-28T08:29:24.626Z,3.87
2022-09-28T08:32:13.124Z,3.97
2022-09-28T08:35:03.136Z,3.97
2022-09-28T08:37:55.657Z,4.53
2022-09-28T08:40:49.560Z,4.20
2022-09-28T08:43:53.453Z,4.40
2022-09-28T08:46:43.729Z,4.70
2022-09-28T08:49:36.718Z,4.30
2022-09-28T08:52:29.776Z,5.20
2022-09-28T08:55:23.093Z,5.10
2022-09-28T08:58:13.415Z,5.30
2022-09-28T09:01:04.582Z,4.73
2022-09-28T09:03:53.335Z,6.00
2022-09-28T09:07:04.984Z,4.40
2022-09-28T09:10:02.477Z,4.47
2022-09-28T09:13:01.001Z,5.03
2022-09-28T09:15:54.056Z,4.50
2022-09-28T09:18:45.590Z,4.90
2022-09-28T09:21:41.543Z,5.00
2022-09-28T09:24:39.873Z,4.93
2022-09-28T09:27:44.270Z,4.30
2022-09-28T09:30:36.155Z,5.33
2022-09-28T09:33:47.700Z,4.37
2022-09-28T09:36:47.241Z,4.60
2022-09-28T09:39:44.847Z,4.40
2022-09-28T09:42:45.963Z,4.67
2022-09-28T09:45:48.671Z,4.57
2022-09-28T09:48:41.701Z,3.77
2022-09-28T09:51:37.534Z,4.07
2022-09-28T09:54:28.618Z,4.10
2022-09-28T09:57:20.231Z,3.83
2022-09-28T10:00:14.897Z,3.57
2022-09-28T10:03:03.364Z,4.00
2022-09-28T10:05:57.480Z,3.87
2022-09-28T10:08:49.994Z,3.60
2022-09-28T10:11:43.979Z,3.63
2022-09-28T10:14:32.457Z,3.27
2022-09-28T10:17:27.139Z,3.43
2022-09-28T10:20:16.365Z,3.70
2022-09-28T10:23:06.765Z,3.60
2022-09-28T10:25:57.999Z,3.37
2022-09-28T10:28:49.665Z,3.80
2022-09-28T10:31:39.875Z,3.23
2022-09-28T10:34:31.066Z,3.53
2022-09-28T10:37:19.820Z,3.30
2022-09-28T10:40:30.220Z,3.40
2022-09-28T10:43:22.820Z,3.43
2022-09-28T10:46:13.610Z,4.53
2022-09-28T10:49:04.547Z,3.00
2022-09-28T10:51:56.191Z,4.00
2022-09-28T10:54:54.063Z,3.17
2022-09-28T10:57:42.598Z,3.43
2022-09-28T11:00:34.439Z,3.60
2022-09-28T11:03:25.291Z,3.80
2022-09-28T11:06:13.830Z,3.67
2022-09-28T11:09:05.292Z,2.93
2022-09-28T11:18:22.496Z,3.30
2022-09-28T11:21:14.242Z,2.97
2022-09-28T11:24:07.272Z,3.40
2022-09-28T11:26:57.500Z,4.00
2022-09-28T11:29:46.924Z,2.80
2022-09-28T11:32:43.918Z,2.60
2022-09-28T11:35:44.019Z,2.90
2022-09-28T11:38:34.761Z,3.57
2022-09-28T11:41:37.936Z,2.60
2022-09-28T11:44:44.645Z,3.00
2022-09-28T11:47:46.907Z,3.97
2022-09-28T11:50:43.925Z,3.17
2022-09-28T11:53:37.110Z,3.13
2022-09-28T11:56:34.557Z,2.97
2022-09-28T11:59:27.736Z,2.80
2022-09-28T12:02:18.875Z,2.80
2022-09-28T12:05:18.514Z,2.97
2022-09-28T12:08:14.796Z,3.37
2022-09-28T12:11:09.709Z,2.60
2022-09-28T12:14:10.091Z,2.73
2022-09-28T12:17:07.980Z,2.40
2022-09-28T12:20:00.663Z,2.80
2022-09-28T12:22:59.464Z,2.90
2022-09-28T12:25:50.798Z,2.67
2022-09-28T12:28:45.428Z,2.53
2022-09-28T12:31:39.380Z,2.70
2022-09-28T12:34:29.603Z,2.30
2022-09-28T12:37:28.868Z,2.70
2022-09-28T12:40:34.459Z,2.57
2022-09-28T12:43:33.752Z,2.40
2022-09-28T12:46:48.901Z,2.37
2022-09-28T12:53:38.739Z,2.67
2022-09-28T12:56:32.777Z,1.80
2022-09-28T12:59:26.634Z,2.40
2022-09-28T13:02:33.429Z,2.10
2022-09-28T13:05:34.401Z,2.47
2022-09-28T13:08:27.867Z,2.60
2022-09-28T13:11:22.355Z,2.00
2022-09-28T13:14:36.440Z,2.13
2022-09-28T13:17:38.732Z,1.87
2022-09-28T13:20:36.794Z,2.40
2022-09-28T13:23:28.592Z,2.20
2022-09-28T13:26:23.602Z,2.07
2022-09-28T13:29:14.580Z,2.03
2022-09-28T13:32:04.224Z,2.20
2022-09-28T13:34:54.735Z,1.90
2022-09-28T13:37:43.231Z,2.23
2022-09-28T13:41:01.463Z,1.67
2022-09-28T13:44:16.518Z,1.90
2022-09-28T13:47:20.529Z,1.80
2022-09-28T13:50:21.430Z,2.33
2022-09-28T13:53:19.124Z,1.50
2022-09-28T13:56:22.977Z,2.63
2022-09-28T13:59:17.257Z,1.60
2022-09-28T14:02:13.602Z,1.37
2022-09-28T14:05:04.478Z,1.50
2022-09-28T14:07:59.630Z,1.90
2022-09-28T14:10:51.815Z,1.40
2022-09-28T14:14:00.274Z,1.80
2022-09-28T14:16:48.753Z,1.73
2022-09-28T14:19:37.244Z,1.60
2022-09-28T14:22:28.875Z,2.17
2022-09-28T14:25:23.997Z,2.60
2022-09-28T14:28:37.682Z,2.27
2022-09-28T14:31:27.621Z,2.00
2022-09-28T14:34:34.538Z,1.77
2022-09-28T14:37:44.120Z,2.00
2022-09-28T14:41:10.978Z,2.17
2022-09-28T14:44:02.547Z,2.00
2022-09-28T14:46:51.004Z,1.70
2022-09-28T14:49:48.888Z,1.70
2022-09-28T14:52:42.370Z,2.00
2022-09-28T14:55:35.778Z,2.47
2022-09-28T14:58:26.697Z,2.97
2022-09-28T15:01:20.178Z,1.47
2022-09-28T15:04:11.467Z,1.80
2022-09-28T15:07:00.201Z,1.80
2022-09-28T15:09:53.310Z,1.80
2022-09-28T15:12:44.718Z,1.70
2022-09-28T15:15:35.567Z,1.57
2022-09-28T15:18:58.570Z,2.20
2022-09-28T15:21:50.100Z,2.17
2022-09-28T15:24:40.186Z,2.07
2022-09-28T15:27:35.629Z,2.20
2022-09-28T15:30:31.719Z,1.77
2022-09-28T15:33:43.059Z,2.53
2022-09-28T15:36:33.794Z,2.40
2022-09-28T15:39:25.443Z,2.10
2022-09-28T15:42:13.987Z,2.20
2022-09-28T15:45:17.363Z,2.47
2022-09-28T15:48:27.267Z,2.20
2022-09-28T15:51:15.805Z,2.33
2022-09-28T15:54:05.925Z,2.30
2022-09-28T15:56:57.740Z,2.60
2022-09-28T15:59:56.767Z,2.57
2022-09-28T16:03:02.234Z,2.67
2022-09-28T16:05:53.717Z,2.23
2022-09-28T16:08:43.748Z,3.27
2022-09-28T16:11:37.884Z,3.23
2022-09-28T16:14:27.392Z,2.90
2022-09-28T16:17:18.448Z,3.03
2022-09-28T16:20:23.122Z,3.10
2022-09-28T16:23:21.250Z,3.83
2022-09-28T16:26:15.739Z,2.93
2022-09-28T16:29:10.048Z,2.90
2022-09-28T16:31:58.479Z,2.87
2022-09-28T16:34:46.987Z,2.97
2022-09-28T16:37:35.428Z,3.47
2022-09-28T16:40:25.426Z,2.40
2022-09-28T16:43:19.505Z,3.03
2022-09-28T16:46:10.232Z,3.70
2022-09-28T16:49:01.504Z,3.43
2022-09-28T16:51:50.092Z,3.23
2022-09-28T16:54:56.127Z,3.27
2022-09-28T16:57:46.828Z,4.00
2022-09-28T17:00:35.396Z,3.90
2022-09-28T17:03:24.386Z,4.40
2022-09-28T17:06:13.603Z,3.93
2022-09-28T17:09:06.767Z,4.33
2022-09-28T17:11:56.860Z,4.03
2022-09-28T17:14:46.821Z,4.07
2022-09-28T17:17:35.373Z,2.73
2022-09-28T17:20:26.799Z,3.10
2022-09-28T17:23:15.321Z,2.20
2022-09-28T17:26:05.399Z,1.90
2022-09-28T17:28:54.790Z,1.60
2022-09-28T17:31:45.638Z,1.50
2022-09-28T17:34:34.132Z,2.50
2022-09-28T17:37:22.606Z,2.33
2022-09-28T17:40:20.113Z,2.90
2022-09-28T17:43:08.672Z,2.77
2022-09-28T17:45:57.321Z,5.40
2022-09-28T17:48:47.467Z,5.67
2022-09-28T17:51:38.235Z,4.30
2022-09-28T17:54:27.198Z,3.50
2022-09-28T17:57:15.701Z,2.87
2022-09-28T18:00:05.300Z,3.40
2022-09-28T18:02:54.325Z,4.37
2022-09-28T18:05:44.607Z,3.63
2022-09-28T18:08:33.663Z,3.97
2022-09-28T18:11:22.609Z,3.13
2022-09-28T18:14:11.477Z,3.90
2022-09-28T18:17:00.224Z,5.10
2022-09-28T18:19:48.892Z,4.20
2022-09-28T18:22:39.020Z,3.83
2022-09-28T18:25:27.678Z,4.30
2022-09-28T18:28:16.222Z,4.90
2022-09-28T18:31:08.620Z,4.87
2022-09-28T18:34:01.838Z,7.00
2022-09-28T18:36:50.466Z,11.00
2022-09-28T18:39:40.375Z,6.03
2022-09-28T18:42:28.928Z,5.40
2022-09-28T18:45:17.855Z,6.90
2022-09-28T18:48:06.452Z,6.03
2022-09-28T18:50:54.957Z,6.63
2022-09-28T18:53:43.568Z,12.63
2022-09-28T18:56:34.215Z,11.23
2022-09-28T18:59:22.814Z,8.30
2022-09-28T19:02:11.915Z,6.97
2022-09-28T19:05:00.649Z,6.60
2022-09-28T19:07:49.331Z,7.00
2022-09-28T19:10:37.824Z,6.13
2022-09-28T19:13:29.246Z,7.43
2022-09-28T19:16:20.607Z,6.40
2022-09-28T19:19:10.197Z,7.70
2022-09-28T19:21:58.923Z,9.40
2022-09-28T19:24:47.532Z,9.73
2022-09-28T19:27:36.039Z,7.53
2022-09-28T19:30:26.021Z,7.00
2022-09-28T19:33:14.698Z,6.63
2022-09-28T19:36:05.004Z,8.33
2022-09-28T19:38:53.888Z,7.80
2022-09-28T19:41:49.199Z,7.50
2022-09-28T19:44:39.172Z,6.90
2022-09-28T19:47:29.143Z,7.63
2022-09-28T19:50:17.803Z,6.23
2022-09-28T19:53:07.686Z,6.87
2022-09-28T19:55:57.781Z,16.33
2022-09-28T19:58:46.305Z,22.47
2022-09-28T20:01:34.955Z,12.53
2022-09-28T20:04:24.807Z,9.73
2022-09-28T20:07:13.425Z,7.27
2022-09-28T20:10:02.239Z,7.80
2022-09-28T20:12:52.495Z,7.00
2022-09-28T20:15:41.562Z,7.63
2022-09-28T20:18:33.315Z,8.67
2022-09-28T20:21:26.798Z,7.43
2022-09-28T20:24:16.520Z,7.43
2022-09-28T20:27:05.078Z,8.53
2022-09-28T20:29:53.704Z,9.00
2022-09-28T20:32:45.090Z,10.10
2022-09-28T20:35:40.367Z,8.93
2022-09-28T20:38:30.249Z,7.97
2022-09-28T20:41:21.887Z,8.10
2022-09-28T20:44:10.599Z,8.70
2022-09-28T20:46:59.200Z,7.83
2022-09-28T20:49:47.703Z,7.33
2022-09-28T20:52:36.306Z,8.20
2022-09-28T20:55:26.138Z,8.43
2022-09-28T20:58:14.793Z,7.47
2022-09-28T21:01:04.717Z,8.70
2022-09-28T21:03:54.449Z,7.90
2022-09-28T21:06:43.441Z,9.30
2022-09-28T21:09:32.395Z,8.60
2022-09-28T21:12:22.225Z,7.70
2022-09-28T21:15:11.674Z,7.70
2022-09-28T21:18:00.277Z,8.00
2022-09-28T21:20:49.402Z,9.13
2022-09-28T21:23:37.943Z,8.97
2022-09-28T21:26:29.657Z,8.40
2022-09-28T21:29:19.562Z,8.17
2022-09-28T21:32:08.194Z,8.73
2022-09-28T21:34:56.717Z,7.90
2022-09-28T21:37:46.231Z,7.70
2022-09-28T21:40:34.768Z,7.97
2022-09-28T21:43:23.342Z,8.37
2022-09-28T21:46:13.392Z,8.20
2022-09-28T21:49:02.561Z,8.27
2022-09-28T21:51:52.028Z,7.87
2022-09-28T21:54:42.516Z,8.13
2022-09-28T21:57:30.963Z,7.77
2022-09-28T22:00:23.125Z,8.30
2022-09-28T22:03:12.900Z,8.20
2022-09-28T22:06:01.432Z,7.57
2022-09-28T22:08:50.592Z,7.67
2022-09-28T22:11:39.072Z,7.50
2022-09-28T22:14:27.743Z,8.03
2022-09-28T22:17:16.229Z,8.23
2022-09-28T22:20:07.102Z,7.60
2022-09-28T22:22:55.501Z,7.70
2022-09-28T22:25:45.659Z,7.30
2022-09-28T22:28:34.607Z,7.87
2022-09-28T22:31:25.821Z,7.90
2022-09-28T22:34:14.366Z,8.30
2022-09-28T22:37:04.626Z,7.53
2022-09-28T22:39:53.585Z,7.97
2022-09-28T22:42:42.809Z,7.40
2022-09-28T22:45:31.247Z,7.70
2022-09-28T22:48:19.641Z,6.53
2022-09-28T22:51:08.369Z,6.90
2022-09-28T22:53:58.484Z,7.23
2022-09-28T22:56:46.922Z,7.33
2022-09-28T22:59:35.328Z,7.50
2022-09-28T23:02:23.777Z,7.87
2022-09-28T23:05:16.950Z,8.17
2022-09-28T23:08:05.512Z,7.33
2022-09-28T23:10:55.288Z,7.67
2022-09-28T23:13:43.942Z,7.47
2022-09-28T23:16:32.645Z,7.47
2022-09-28T23:19:21.102Z,8.07
2022-09-28T23:22:09.616Z,7.67
2022-09-28T23:24:58.106Z,7.30
2022-09-28T23:27:48.692Z,7.63
2022-09-28T23:30:37.137Z,8.83
2022-09-28T23:33:25.578Z,7.83
2022-09-28T23:36:14.353Z,7.33
2022-09-28T23:39:03.517Z,7.57
2022-09-28T23:41:51.951Z,6.60
2022-09-28T23:44:41.725Z,6.80
2022-09-28T23:47:30.169Z,7.10
2022-09-28T23:50:18.568Z,6.67
2022-09-28T23:53:06.998Z,6.67
2022-09-28T23:55:56.655Z,7.20
2022-09-28T23:58:45.086Z,7.30
